createdAt,value
2023-04-16T00:00:03.252Z,25.68
2023-04-16T00:00:13.149Z,25.68
2023-04-16T00:00:23.153Z,25.68
2023-04-16T00:00:33.164Z,25.69
2023-04-16T00:00:43.174Z,25.69
2023-04-16T00:00:53.182Z,25.69
2023-04-16T00:01:03.221Z,25.70
2023-04-16T00:01:13.235Z,25.70
2023-04-16T00:01:23.344Z,25.71
2023-04-16T00:01:33.345Z,25.70
2023-04-16T00:01:43.660Z,25.71
2023-04-16T00:01:53.743Z,25.72
2023-04-16T00:02:03.878Z,25.71
2023-04-16T00:02:13.858Z,25.72
2023-04-16T00:02:24.067Z,25.71
2023-04-16T00:02:34.175Z,25.71
2023-04-16T00:02:44.228Z,25.70
2023-04-16T00:02:54.229Z,25.71
2023-04-16T00:03:04.343Z,25.69
2023-04-16T00:03:14.387Z,25.70
2023-04-16T00:03:24.718Z,25.69
2023-04-16T00:03:34.835Z,25.69
2023-04-16T00:03:44.799Z,25.70
2023-04-16T00:03:55.336Z,25.70
2023-04-16T00:04:05.377Z,25.69
2023-04-16T00:04:15.230Z,25.70
2023-04-16T00:04:25.375Z,25.70
2023-04-16T00:04:35.392Z,25.69
2023-04-16T00:04:45.515Z,25.70
2023-04-16T00:04:55.483Z,25.70
2023-04-16T00:05:05.701Z,25.71
2023-04-16T00:05:15.768Z,25.71
2023-04-16T00:05:25.781Z,25.72
2023-04-16T00:05:35.808Z,25.72
2023-04-16T00:05:45.817Z,25.72
2023-04-16T00:05:56.036Z,25.72
2023-04-16T00:06:05.917Z,25.72
2023-04-16T00:06:15.916Z,25.72
2023-04-16T00:06:25.927Z,25.72
2023-04-16T00:06:35.928Z,25.72
2023-04-16T00:06:45.964Z,25.72
2023-04-16T00:06:55.982Z,25.73
2023-04-16T00:07:05.974Z,25.73
2023-04-16T00:07:15.977Z,25.73
2023-04-16T00:07:25.995Z,25.73
2023-04-16T00:07:35.995Z,25.73
2023-04-16T00:07:46.009Z,25.72
2023-04-16T00:07:56.030Z,25.73
2023-04-16T00:08:06.038Z,25.74
2023-04-16T00:08:16.040Z,25.74
2023-04-16T00:08:26.060Z,25.74
2023-04-16T00:08:36.055Z,25.73
2023-04-16T00:08:46.078Z,25.73
2023-04-16T00:08:56.115Z,25.74
2023-04-16T00:09:06.148Z,25.74
2023-04-16T00:09:16.145Z,25.73
2023-04-16T00:09:26.180Z,25.74
2023-04-16T00:09:36.156Z,25.74
2023-04-16T00:09:46.199Z,25.74
2023-04-16T00:09:56.183Z,25.74
2023-04-16T00:10:06.217Z,25.74
2023-04-16T00:10:16.221Z,25.74
2023-04-16T00:10:26.227Z,25.74
2023-04-16T00:10:36.226Z,25.74
2023-04-16T00:10:46.247Z,25.74
2023-04-16T00:10:56.294Z,25.75
2023-04-16T00:11:06.299Z,25.74
2023-04-16T00:11:16.308Z,25.75
2023-04-16T00:11:26.323Z,25.75
2023-04-16T00:11:36.333Z,25.75
2023-04-16T00:11:46.351Z,25.74
2023-04-16T00:11:56.357Z,25.75
2023-04-16T00:12:06.362Z,25.75
2023-04-16T00:12:16.383Z,25.75
2023-04-16T00:12:26.384Z,25.75
2023-04-16T00:12:36.448Z,25.75
2023-04-16T00:12:46.456Z,25.75
2023-04-16T00:12:56.454Z,25.76
2023-04-16T00:13:06.497Z,25.76
2023-04-16T00:13:16.512Z,25.75
2023-04-16T00:13:26.524Z,25.75
2023-04-16T00:13:36.549Z,25.75
2023-04-16T00:13:46.567Z,25.75
2023-04-16T00:13:56.571Z,25.76
2023-04-16T00:14:06.594Z,25.76
2023-04-16T00:14:16.589Z,25.76
2023-04-16T00:14:26.601Z,25.76
2023-04-16T00:14:36.604Z,25.76
2023-04-16T00:14:46.733Z,25.76
2023-04-16T00:14:56.991Z,25.76
2023-04-16T00:15:06.993Z,25.76
2023-04-16T00:15:17.016Z,25.75
2023-04-16T00:15:27.021Z,25.75
2023-04-16T00:15:37.060Z,25.75
2023-04-16T00:15:47.057Z,25.75
2023-04-16T00:15:57.085Z,25.75
2023-04-16T00:16:07.171Z,25.75
2023-04-16T00:16:17.208Z,25.75
2023-04-16T00:16:27.271Z,25.75
2023-04-16T00:16:37.288Z,25.76
2023-04-16T00:16:47.402Z,25.75
2023-04-16T00:16:57.379Z,25.75
2023-04-16T00:17:07.462Z,25.74
2023-04-16T00:17:17.473Z,25.75
2023-04-16T00:17:27.507Z,25.74
2023-04-16T00:17:37.572Z,25.75
2023-04-16T00:17:47.776Z,25.75
2023-04-16T00:17:57.757Z,25.74
2023-04-16T00:18:07.803Z,25.74
2023-04-16T00:18:17.828Z,25.74
2023-04-16T00:18:27.965Z,25.75
2023-04-16T00:18:37.967Z,25.75
2023-04-16T00:18:47.984Z,25.75
2023-04-16T00:18:58.015Z,25.75
2023-04-16T00:19:08.392Z,25.76
2023-04-16T00:19:18.153Z,25.76
2023-04-16T00:19:28.176Z,25.75
2023-04-16T00:19:38.227Z,25.76
2023-04-16T00:19:48.228Z,25.75
2023-04-16T00:19:58.227Z,25.76
2023-04-16T00:20:08.493Z,25.76
2023-04-16T00:20:18.491Z,25.76
2023-04-16T00:20:28.517Z,25.76
2023-04-16T00:20:38.523Z,25.75
2023-04-16T00:20:48.532Z,25.76
2023-04-16T00:20:58.551Z,25.76
2023-04-16T00:21:08.574Z,25.76
2023-04-16T00:21:18.557Z,25.76
2023-04-16T00:21:28.558Z,25.77
2023-04-16T00:21:38.563Z,25.77
2023-04-16T00:21:48.579Z,25.77
2023-04-16T00:21:58.572Z,25.77
2023-04-16T00:22:08.694Z,25.78
2023-04-16T00:22:18.716Z,25.77
2023-04-16T00:22:28.733Z,25.78
2023-04-16T00:22:38.737Z,25.78
2023-04-16T00:22:48.741Z,25.78
2023-04-16T00:22:59.017Z,25.76
2023-04-16T00:23:09.149Z,25.76
2023-04-16T00:23:19.166Z,25.76
2023-04-16T00:23:29.438Z,25.76
2023-04-16T00:23:39.440Z,25.77
2023-04-16T00:23:49.447Z,25.76
2023-04-16T00:23:59.447Z,25.77
2023-04-16T00:24:09.459Z,25.77
2023-04-16T00:24:19.466Z,25.77
2023-04-16T00:24:29.481Z,25.77
2023-04-16T00:24:39.482Z,25.77
2023-04-16T00:24:49.506Z,25.76
2023-04-16T00:24:59.502Z,25.76
2023-04-16T00:25:09.536Z,25.77
2023-04-16T00:25:19.567Z,25.76
2023-04-16T00:25:29.572Z,25.75
2023-04-16T00:25:39.581Z,25.75
2023-04-16T00:25:49.607Z,25.75
2023-04-16T00:25:59.606Z,25.75
2023-04-16T00:26:09.599Z,25.75
2023-04-16T00:26:19.668Z,25.76
2023-04-16T00:26:29.724Z,25.76
2023-04-16T00:26:39.726Z,25.76
2023-04-16T00:26:49.724Z,25.76
2023-04-16T00:26:59.732Z,25.75
2023-04-16T00:27:09.854Z,25.76
2023-04-16T00:27:19.869Z,25.76
2023-04-16T00:27:30.163Z,25.76
2023-04-16T00:27:40.188Z,25.76
2023-04-16T00:27:50.313Z,25.77
2023-04-16T00:28:00.584Z,25.77
2023-04-16T00:28:11.165Z,25.77
2023-04-16T00:28:20.707Z,25.77
2023-04-16T00:28:30.958Z,25.77
2023-04-16T00:28:40.962Z,25.77
2023-04-16T00:28:50.967Z,25.78
2023-04-16T00:29:00.962Z,25.78
2023-04-16T00:29:11.219Z,25.77
2023-04-16T00:29:21.003Z,25.77
2023-04-16T00:29:31.026Z,25.76
2023-04-16T00:29:41.010Z,25.76
2023-04-16T00:29:51.139Z,25.76
2023-04-16T00:30:01.148Z,25.75
2023-04-16T00:30:11.408Z,25.75
2023-04-16T00:30:21.419Z,25.75
2023-04-16T00:30:31.426Z,25.75
2023-04-16T00:30:41.452Z,25.75
2023-04-16T00:30:51.476Z,25.76
2023-04-16T00:31:01.555Z,25.76
2023-04-16T00:31:11.624Z,25.75
2023-04-16T00:31:21.716Z,25.75
2023-04-16T00:31:31.850Z,25.75
2023-04-16T00:31:41.751Z,25.75
2023-04-16T00:31:51.759Z,25.75
2023-04-16T00:32:01.759Z,25.75
2023-04-16T00:32:11.888Z,25.75
2023-04-16T00:32:21.971Z,25.75
2023-04-16T00:32:31.975Z,25.76
2023-04-16T00:32:42.015Z,25.76
2023-04-16T00:32:52.107Z,25.76
2023-04-16T00:33:02.395Z,25.75
2023-04-16T00:33:12.367Z,25.75
2023-04-16T00:33:22.368Z,25.76
2023-04-16T00:33:32.370Z,25.76
2023-04-16T00:33:42.379Z,25.76
2023-04-16T00:33:52.406Z,25.77
2023-04-16T00:34:02.481Z,25.77
2023-04-16T00:34:12.479Z,25.77
2023-04-16T00:34:22.487Z,25.77
2023-04-16T00:34:32.481Z,25.77
2023-04-16T00:34:42.481Z,25.77
2023-04-16T00:34:52.664Z,25.77
2023-04-16T00:35:02.652Z,25.77
2023-04-16T00:35:12.671Z,25.77
2023-04-16T00:35:22.689Z,25.77
2023-04-16T00:35:32.698Z,25.78
2023-04-16T00:35:42.692Z,25.77
2023-04-16T00:35:52.981Z,25.78
2023-04-16T00:36:02.986Z,25.79
2023-04-16T00:36:12.990Z,25.79
2023-04-16T00:36:22.989Z,25.78
2023-04-16T00:36:32.997Z,25.78
2023-04-16T00:36:43.002Z,25.79
2023-04-16T00:36:53.014Z,25.79
2023-04-16T00:37:03.021Z,25.78
2023-04-16T00:37:13.048Z,25.79
2023-04-16T00:37:23.050Z,25.78
2023-04-16T00:37:33.050Z,25.78
2023-04-16T00:37:43.060Z,25.78
2023-04-16T00:37:53.067Z,25.78
2023-04-16T00:38:03.079Z,25.78
2023-04-16T00:38:13.100Z,25.78
2023-04-16T00:38:23.101Z,25.77
2023-04-16T00:38:33.132Z,25.77
2023-04-16T00:38:43.143Z,25.77
2023-04-16T00:38:53.173Z,25.77
2023-04-16T00:39:03.184Z,25.78
2023-04-16T00:39:13.203Z,25.78
2023-04-16T00:39:23.247Z,25.78
2023-04-16T00:39:33.272Z,25.78
2023-04-16T00:39:43.275Z,25.79
2023-04-16T00:39:53.313Z,25.78
2023-04-16T00:40:03.325Z,25.78
2023-04-16T00:40:13.336Z,25.78
2023-04-16T00:40:23.331Z,25.78
2023-04-16T00:40:33.345Z,25.78
2023-04-16T00:40:43.357Z,25.78
2023-04-16T00:40:53.363Z,25.79
2023-04-16T00:41:03.373Z,25.78
2023-04-16T00:41:13.395Z,25.78
2023-04-16T00:41:23.396Z,25.79
2023-04-16T00:41:33.401Z,25.80
2023-04-16T00:41:43.410Z,25.78
2023-04-16T00:41:53.432Z,25.78
2023-04-16T00:42:03.454Z,25.78
2023-04-16T00:42:13.446Z,25.78
2023-04-16T00:42:23.474Z,25.78
2023-04-16T00:42:33.470Z,25.78
2023-04-16T00:42:43.480Z,25.79
2023-04-16T00:42:53.482Z,25.78
2023-04-16T00:43:03.541Z,25.78
2023-04-16T00:43:13.525Z,25.79
2023-04-16T00:43:23.532Z,25.78
2023-04-16T00:43:33.551Z,25.77
2023-04-16T00:43:43.578Z,25.78
2023-04-16T00:43:53.583Z,25.78
2023-04-16T00:44:03.606Z,25.78
2023-04-16T00:44:13.622Z,25.78
2023-04-16T00:44:23.625Z,25.78
2023-04-16T00:44:33.625Z,25.78
2023-04-16T00:44:43.651Z,25.77
2023-04-16T00:44:53.657Z,25.78
2023-04-16T00:45:03.665Z,25.78
2023-04-16T00:45:13.673Z,25.78
2023-04-16T00:45:23.675Z,25.77
2023-04-16T00:45:33.679Z,25.77
2023-04-16T00:45:43.689Z,25.77
2023-04-16T00:45:53.715Z,25.77
2023-04-16T00:46:03.863Z,25.77
2023-04-16T00:46:13.874Z,25.77
2023-04-16T00:46:23.940Z,25.77
2023-04-16T00:46:33.807Z,25.78
2023-04-16T00:46:43.932Z,25.78
2023-04-16T00:46:53.944Z,25.78
2023-04-16T00:47:04.009Z,25.78
2023-04-16T00:47:14.011Z,25.78
2023-04-16T00:47:24.158Z,25.78
2023-04-16T00:47:34.250Z,25.78
2023-04-16T00:47:44.334Z,25.79
2023-04-16T00:47:54.346Z,25.79
2023-04-16T00:48:04.521Z,25.78
2023-04-16T00:48:14.567Z,25.78
2023-04-16T00:48:24.580Z,25.78
2023-04-16T00:48:34.592Z,25.77
2023-04-16T00:48:44.601Z,25.77
2023-04-16T00:48:54.608Z,25.76
2023-04-16T00:49:04.638Z,25.76
2023-04-16T00:49:14.644Z,25.77
2023-04-16T00:49:24.781Z,25.76
2023-04-16T00:49:34.786Z,25.76
2023-04-16T00:49:45.052Z,25.76
2023-04-16T00:49:55.043Z,25.76
2023-04-16T00:50:05.053Z,25.76
2023-04-16T00:50:15.064Z,25.76
2023-04-16T00:50:25.071Z,25.75
2023-04-16T00:50:35.085Z,25.75
2023-04-16T00:50:45.089Z,25.75
2023-04-16T00:50:55.101Z,25.76
2023-04-16T00:51:05.103Z,25.76
2023-04-16T00:51:15.120Z,25.77
2023-04-16T00:51:25.128Z,25.77
2023-04-16T00:51:35.140Z,25.76
2023-04-16T00:51:45.146Z,25.77
2023-04-16T00:51:55.145Z,25.76
2023-04-16T00:52:05.348Z,25.76
2023-04-16T00:52:15.349Z,25.76
2023-04-16T00:52:25.472Z,25.77
2023-04-16T00:52:35.612Z,25.77
2023-04-16T00:52:45.694Z,25.76
2023-04-16T00:52:55.731Z,25.77
2023-04-16T00:53:05.790Z,25.78
2023-04-16T00:53:15.798Z,25.78
2023-04-16T00:53:25.822Z,25.78
2023-04-16T00:53:35.827Z,25.78
2023-04-16T00:53:45.840Z,25.78
2023-04-16T00:53:55.853Z,25.78
2023-04-16T00:54:05.848Z,25.78
2023-04-16T00:54:15.849Z,25.79
2023-04-16T00:54:25.865Z,25.78
2023-04-16T00:54:35.889Z,25.78
2023-04-16T00:54:45.879Z,25.79
2023-04-16T00:54:55.904Z,25.78
2023-04-16T00:55:05.914Z,25.79
2023-04-16T00:55:15.916Z,25.78
2023-04-16T00:55:25.924Z,25.78
2023-04-16T00:55:35.950Z,25.77
2023-04-16T00:55:45.957Z,25.77
2023-04-16T00:55:55.949Z,25.77
2023-04-16T00:56:05.969Z,25.77
2023-04-16T00:56:17.490Z,25.78
2023-04-16T00:56:26.059Z,25.77
2023-04-16T00:56:36.059Z,25.77
2023-04-16T00:56:46.082Z,25.76
2023-04-16T00:56:56.084Z,25.77
2023-04-16T00:57:06.219Z,25.77
2023-04-16T00:57:16.209Z,25.76
2023-04-16T00:57:26.224Z,25.76
2023-04-16T00:57:36.234Z,25.75
2023-04-16T00:57:46.490Z,25.75
2023-04-16T00:57:56.513Z,25.75
2023-04-16T00:58:06.523Z,25.75
2023-04-16T00:58:16.525Z,25.75
2023-04-16T00:58:26.550Z,25.75
2023-04-16T00:58:36.565Z,25.75
2023-04-16T00:58:46.591Z,25.76
2023-04-16T00:58:56.634Z,25.76
2023-04-16T00:59:06.772Z,25.76
2023-04-16T00:59:16.621Z,25.76
2023-04-16T00:59:26.640Z,25.75
2023-04-16T00:59:36.648Z,25.75
2023-04-16T00:59:46.774Z,25.75
2023-04-16T00:59:56.770Z,25.76
2023-04-16T01:00:06.888Z,25.75
2023-04-16T01:00:16.894Z,25.75
2023-04-16T01:00:26.900Z,25.75
2023-04-16T01:00:37.036Z,25.75
2023-04-16T01:00:47.038Z,25.75
2023-04-16T01:00:57.081Z,25.74
2023-04-16T01:01:07.488Z,25.74
2023-04-16T01:01:17.553Z,25.73
2023-04-16T01:01:27.608Z,25.73
2023-04-16T01:01:37.707Z,25.73
2023-04-16T01:01:47.777Z,25.73
2023-04-16T01:01:57.891Z,25.73
2023-04-16T01:02:07.902Z,25.74
2023-04-16T01:02:17.867Z,25.74
2023-04-16T01:02:27.822Z,25.73
2023-04-16T01:02:38.031Z,25.72
2023-04-16T01:02:48.160Z,25.73
2023-04-16T01:02:58.105Z,25.72
2023-04-16T01:03:08.236Z,25.72
2023-04-16T01:03:18.368Z,25.73
2023-04-16T01:03:28.580Z,25.72
2023-04-16T01:03:38.641Z,25.72
2023-04-16T01:03:48.674Z,25.72
2023-04-16T01:03:59.122Z,25.71
2023-04-16T01:04:08.969Z,25.70
2023-04-16T01:04:19.097Z,25.71
2023-04-16T01:04:29.064Z,25.70
2023-04-16T01:04:39.065Z,25.70
2023-04-16T01:04:49.186Z,25.70
2023-04-16T01:04:59.188Z,25.70
2023-04-16T01:05:09.192Z,25.69
2023-04-16T01:05:19.197Z,25.70
2023-04-16T01:05:29.199Z,25.69
2023-04-16T01:05:39.199Z,25.70
2023-04-16T01:05:49.245Z,25.69
2023-04-16T01:05:59.246Z,25.68
2023-04-16T01:06:09.259Z,25.68
2023-04-16T01:06:19.275Z,25.68
2023-04-16T01:06:29.270Z,25.67
2023-04-16T01:06:39.277Z,25.68
2023-04-16T01:06:49.305Z,25.68
2023-04-16T01:06:59.312Z,25.67
2023-04-16T01:07:09.440Z,25.68
2023-04-16T01:07:19.444Z,25.67
2023-04-16T01:07:29.444Z,25.67
2023-04-16T01:07:39.445Z,25.68
2023-04-16T01:07:49.570Z,25.68
2023-04-16T01:07:59.706Z,25.67
2023-04-16T01:08:09.709Z,25.67
2023-04-16T01:08:19.715Z,25.68
2023-04-16T01:08:29.730Z,25.67
2023-04-16T01:08:39.746Z,25.67
2023-04-16T01:08:49.768Z,25.68
2023-04-16T01:08:59.758Z,25.67
2023-04-16T01:09:09.930Z,25.67
2023-04-16T01:09:19.882Z,25.67
2023-04-16T01:09:29.882Z,25.67
2023-04-16T01:09:40.157Z,25.66
2023-04-16T01:09:50.166Z,25.66
2023-04-16T01:10:00.224Z,25.65
2023-04-16T01:10:10.255Z,25.66
2023-04-16T01:10:20.281Z,25.65
2023-04-16T01:10:30.265Z,25.65
2023-04-16T01:10:40.267Z,25.65
2023-04-16T01:10:50.286Z,25.64
2023-04-16T01:11:00.286Z,25.64
2023-04-16T01:11:10.291Z,25.64
2023-04-16T01:11:20.291Z,25.64
2023-04-16T01:11:30.418Z,25.63
2023-04-16T01:11:40.420Z,25.63
2023-04-16T01:11:50.440Z,25.62
2023-04-16T01:12:00.441Z,25.62
2023-04-16T01:12:10.475Z,25.62
2023-04-16T01:12:20.487Z,25.62
2023-04-16T01:12:30.752Z,25.60
2023-04-16T01:12:40.748Z,25.62
2023-04-16T01:12:50.865Z,25.61
2023-04-16T01:13:01.133Z,25.60
2023-04-16T01:13:11.150Z,25.62
2023-04-16T01:13:21.175Z,25.61
2023-04-16T01:13:31.184Z,25.61
2023-04-16T01:13:41.190Z,25.60
2023-04-16T01:13:51.179Z,25.60
2023-04-16T01:14:01.195Z,25.60
2023-04-16T01:14:11.201Z,25.59
2023-04-16T01:14:21.216Z,25.59
2023-04-16T01:14:31.227Z,25.59
2023-04-16T01:14:41.247Z,25.59
2023-04-16T01:14:51.239Z,25.59
2023-04-16T01:15:01.254Z,25.59
2023-04-16T01:15:11.273Z,25.59
2023-04-16T01:15:21.274Z,25.59
2023-04-16T01:15:31.284Z,25.59
2023-04-16T01:15:41.298Z,25.59
2023-04-16T01:15:51.340Z,25.59
2023-04-16T01:16:01.373Z,25.59
2023-04-16T01:16:11.458Z,25.58
2023-04-16T01:16:21.499Z,25.58
2023-04-16T01:16:31.508Z,25.58
2023-04-16T01:16:41.519Z,25.57
2023-04-16T01:16:51.640Z,25.58
2023-04-16T01:17:01.912Z,25.58
2023-04-16T01:17:11.923Z,25.58
2023-04-16T01:17:21.961Z,25.57
2023-04-16T01:17:31.979Z,25.56
2023-04-16T01:17:41.999Z,25.56
2023-04-16T01:17:52.108Z,25.56
2023-04-16T01:18:02.081Z,25.55
2023-04-16T01:18:12.098Z,25.56
2023-04-16T01:18:22.082Z,25.55
2023-04-16T01:18:32.205Z,25.55
2023-04-16T01:18:42.475Z,25.56
2023-04-16T01:18:52.478Z,25.56
2023-04-16T01:19:02.487Z,25.55
2023-04-16T01:19:12.519Z,25.55
2023-04-16T01:19:22.526Z,25.55
2023-04-16T01:19:32.541Z,25.54
2023-04-16T01:19:42.542Z,25.54
2023-04-16T01:19:52.593Z,25.53
2023-04-16T01:20:02.606Z,25.53
2023-04-16T01:20:12.757Z,25.53
2023-04-16T01:20:23.005Z,25.52
2023-04-16T01:20:33.003Z,25.53
2023-04-16T01:20:43.009Z,25.52
2023-04-16T01:20:53.024Z,25.53
2023-04-16T01:21:03.052Z,25.51
2023-04-16T01:21:13.049Z,25.52
2023-04-16T01:21:23.058Z,25.52
2023-04-16T01:21:33.069Z,25.51
2023-04-16T01:21:43.083Z,25.51
2023-04-16T01:21:53.090Z,25.51
2023-04-16T01:22:03.096Z,25.51
2023-04-16T01:22:13.107Z,25.51
2023-04-16T01:22:23.107Z,25.52
2023-04-16T01:22:33.107Z,25.51
2023-04-16T01:22:43.236Z,25.49
2023-04-16T01:22:53.238Z,25.49
2023-04-16T01:23:03.239Z,25.49
2023-04-16T01:23:13.491Z,25.49
2023-04-16T01:23:23.504Z,25.48
2023-04-16T01:23:33.513Z,25.48
2023-04-16T01:23:43.515Z,25.48
2023-04-16T01:23:53.537Z,25.46
2023-04-16T01:24:03.550Z,25.46
2023-04-16T01:24:13.565Z,25.45
2023-04-16T01:24:23.583Z,25.47
2023-04-16T01:24:33.581Z,25.46
2023-04-16T01:24:43.594Z,25.45
2023-04-16T01:24:53.600Z,25.45
2023-04-16T01:25:03.785Z,25.46
2023-04-16T01:25:13.790Z,25.45
2023-04-16T01:25:23.788Z,25.45
2023-04-16T01:25:33.805Z,25.45
2023-04-16T01:25:43.791Z,25.45
2023-04-16T01:25:53.813Z,25.45
2023-04-16T01:26:04.067Z,25.45
2023-04-16T01:26:14.089Z,25.45
2023-04-16T01:26:24.092Z,25.45
2023-04-16T01:26:34.101Z,25.45
2023-04-16T01:26:44.105Z,25.44
2023-04-16T01:26:54.121Z,25.43
2023-04-16T01:27:04.159Z,25.44
2023-04-16T01:27:14.173Z,25.43
2023-04-16T01:27:24.194Z,25.43
2023-04-16T01:27:34.223Z,25.43
2023-04-16T01:27:44.225Z,25.43
2023-04-16T01:27:54.232Z,25.43
2023-04-16T01:28:04.352Z,25.43
2023-04-16T01:28:14.353Z,25.42
2023-04-16T01:28:24.364Z,25.43
2023-04-16T01:28:34.390Z,25.42
2023-04-16T01:28:44.393Z,25.42
2023-04-16T01:28:54.654Z,25.41
2023-04-16T01:29:04.663Z,25.41
2023-04-16T01:29:14.666Z,25.42
2023-04-16T01:29:24.672Z,25.41
2023-04-16T01:29:34.686Z,25.41
2023-04-16T01:29:44.701Z,25.40
2023-04-16T01:29:54.696Z,25.41
2023-04-16T01:30:04.784Z,25.41
2023-04-16T01:30:14.785Z,25.41
2023-04-16T01:30:24.777Z,25.41
2023-04-16T01:30:34.788Z,25.40
2023-04-16T01:30:44.910Z,25.40
2023-04-16T01:30:54.908Z,25.39
2023-04-16T01:31:04.940Z,25.40
2023-04-16T01:31:14.972Z,25.39
2023-04-16T01:31:25.026Z,25.40
2023-04-16T01:31:35.060Z,25.40
2023-04-16T01:31:45.506Z,25.39
2023-04-16T01:31:55.420Z,25.39
2023-04-16T01:32:05.422Z,25.38
2023-04-16T01:32:15.703Z,25.39
2023-04-16T01:32:25.747Z,25.39
2023-04-16T01:32:36.130Z,25.39
2023-04-16T01:32:46.161Z,25.39
2023-04-16T01:32:56.302Z,25.38
2023-04-16T01:33:06.263Z,25.38
2023-04-16T01:33:16.261Z,25.38
2023-04-16T01:33:26.391Z,25.37
2023-04-16T01:33:36.407Z,25.37
2023-04-16T01:33:46.409Z,25.37
2023-04-16T01:33:56.421Z,25.37
2023-04-16T01:34:06.449Z,25.37
2023-04-16T01:34:16.485Z,25.37
2023-04-16T01:34:26.752Z,25.37
2023-04-16T01:34:36.755Z,25.37
2023-04-16T01:34:46.879Z,25.37
2023-04-16T01:34:57.129Z,25.37
2023-04-16T01:35:07.249Z,25.36
2023-04-16T01:35:17.252Z,25.36
2023-04-16T01:35:27.521Z,25.36
2023-04-16T01:35:37.525Z,25.35
2023-04-16T01:35:47.552Z,25.36
2023-04-16T01:35:57.562Z,25.35
2023-04-16T01:36:07.601Z,25.34
2023-04-16T01:36:17.596Z,25.35
2023-04-16T01:36:27.760Z,25.34
2023-04-16T01:36:37.776Z,25.34
2023-04-16T01:36:47.791Z,25.34
2023-04-16T01:36:57.830Z,25.34
2023-04-16T01:37:08.094Z,25.33
2023-04-16T01:37:18.091Z,25.33
2023-04-16T01:37:28.235Z,25.33
2023-04-16T01:37:38.497Z,25.32
2023-04-16T01:37:48.498Z,25.33
2023-04-16T01:37:58.506Z,25.32
2023-04-16T01:38:08.514Z,25.32
2023-04-16T01:38:18.535Z,25.32
2023-04-16T01:38:28.544Z,25.32
2023-04-16T01:38:38.555Z,25.31
2023-04-16T01:38:48.571Z,25.32
2023-04-16T01:38:58.577Z,25.32
2023-04-16T01:39:08.886Z,25.32
2023-04-16T01:39:18.604Z,25.32
2023-04-16T01:39:28.617Z,25.32
2023-04-16T01:39:38.632Z,25.31
2023-04-16T01:39:48.637Z,25.31
2023-04-16T01:39:58.630Z,25.31
2023-04-16T01:40:08.649Z,25.31
2023-04-16T01:40:18.650Z,25.31
2023-04-16T01:40:28.667Z,25.31
2023-04-16T01:40:38.664Z,25.31
2023-04-16T01:40:48.681Z,25.31
2023-04-16T01:40:58.695Z,25.30
2023-04-16T01:41:08.704Z,25.31
2023-04-16T01:41:18.702Z,25.30
2023-04-16T01:41:28.826Z,25.30
2023-04-16T01:41:39.092Z,25.30
2023-04-16T01:41:49.106Z,25.30
2023-04-16T01:41:59.117Z,25.29
2023-04-16T01:42:09.117Z,25.29
2023-04-16T01:42:19.137Z,25.30
2023-04-16T01:42:29.140Z,25.29
2023-04-16T01:42:39.147Z,25.29
2023-04-16T01:42:49.156Z,25.29
2023-04-16T01:42:59.166Z,25.29
2023-04-16T01:43:09.179Z,25.29
2023-04-16T01:43:19.212Z,25.29
2023-04-16T01:43:29.232Z,25.28
2023-04-16T01:43:40.334Z,25.28
2023-04-16T01:43:49.259Z,25.27
2023-04-16T01:43:59.284Z,25.27
2023-04-16T01:44:09.286Z,25.28
2023-04-16T01:44:19.289Z,25.27
2023-04-16T01:44:29.315Z,25.27
2023-04-16T01:44:39.306Z,25.27
2023-04-16T01:44:49.434Z,25.27
2023-04-16T01:44:59.434Z,25.27
2023-04-16T01:45:09.463Z,25.27
2023-04-16T01:45:19.470Z,25.26
2023-04-16T01:45:29.474Z,25.26
2023-04-16T01:45:39.735Z,25.27
2023-04-16T01:45:49.884Z,25.26
2023-04-16T01:45:59.878Z,25.27
2023-04-16T01:46:10.159Z,25.27
2023-04-16T01:46:20.264Z,25.27
2023-04-16T01:46:30.362Z,25.27
2023-04-16T01:46:40.648Z,25.26
2023-04-16T01:46:50.722Z,25.26
2023-04-16T01:47:00.780Z,25.25
2023-04-16T01:47:10.770Z,25.25
2023-04-16T01:47:20.862Z,25.24
2023-04-16T01:47:30.882Z,25.24
2023-04-16T01:47:40.940Z,25.24
2023-04-16T01:47:51.103Z,25.24
2023-04-16T01:48:01.176Z,25.24
2023-04-16T01:48:11.206Z,25.24
2023-04-16T01:48:21.348Z,25.24
2023-04-16T01:48:31.458Z,25.24
2023-04-16T01:48:41.467Z,25.24
2023-04-16T01:48:51.745Z,25.24
2023-04-16T01:49:01.760Z,25.24
2023-04-16T01:49:11.972Z,25.24
2023-04-16T01:49:21.758Z,25.23
2023-04-16T01:49:31.771Z,25.22
2023-04-16T01:49:41.811Z,25.22
2023-04-16T01:49:51.939Z,25.23
2023-04-16T01:50:01.954Z,25.22
2023-04-16T01:50:11.959Z,25.21
2023-04-16T01:50:21.957Z,25.22
2023-04-16T01:50:32.224Z,25.22
2023-04-16T01:50:42.229Z,25.21
2023-04-16T01:50:52.236Z,25.21
2023-04-16T01:51:02.244Z,25.21
2023-04-16T01:51:12.249Z,25.21
2023-04-16T01:51:22.296Z,25.21
2023-04-16T01:51:32.311Z,25.21
2023-04-16T01:51:42.322Z,25.21
2023-04-16T01:51:52.320Z,25.21
2023-04-16T01:52:02.365Z,25.21
2023-04-16T01:52:12.375Z,25.21
2023-04-16T01:52:22.422Z,25.20
2023-04-16T01:52:32.416Z,25.20
2023-04-16T01:52:42.446Z,25.20
2023-04-16T01:52:52.451Z,25.20
2023-04-16T01:53:02.463Z,25.20
2023-04-16T01:53:12.462Z,25.20
2023-04-16T01:53:22.477Z,25.19
2023-04-16T01:53:32.490Z,25.19
2023-04-16T01:53:42.490Z,25.19
2023-04-16T01:53:52.507Z,25.20
2023-04-16T01:54:02.518Z,25.19
2023-04-16T01:54:12.537Z,25.19
2023-04-16T01:54:22.532Z,25.19
2023-04-16T01:54:32.565Z,25.19
2023-04-16T01:54:42.569Z,25.19
2023-04-16T01:54:52.702Z,25.19
2023-04-16T01:55:02.706Z,25.19
2023-04-16T01:55:12.736Z,25.19
2023-04-16T01:55:22.758Z,25.19
2023-04-16T01:55:32.879Z,25.19
2023-04-16T01:55:43.018Z,25.19
2023-04-16T01:55:53.030Z,25.18
2023-04-16T01:56:03.096Z,25.18
2023-04-16T01:56:13.079Z,25.19
2023-04-16T01:56:23.087Z,25.19
2023-04-16T01:56:33.101Z,25.18
2023-04-16T01:56:43.107Z,25.18
2023-04-16T01:56:53.120Z,25.17
2023-04-16T01:57:03.192Z,25.17
2023-04-16T01:57:13.186Z,25.18
2023-04-16T01:57:23.193Z,25.17
2023-04-16T01:57:33.321Z,25.17
2023-04-16T01:57:43.344Z,25.18
2023-04-16T01:57:53.356Z,25.17
2023-04-16T01:58:03.342Z,25.18
2023-04-16T01:58:13.363Z,25.18
2023-04-16T01:58:23.390Z,25.17
2023-04-16T01:58:33.659Z,25.17
2023-04-16T01:58:43.657Z,25.17
2023-04-16T01:58:53.791Z,25.17
2023-04-16T01:59:04.057Z,25.17
2023-04-16T01:59:14.067Z,25.17
2023-04-16T01:59:24.064Z,25.17
2023-04-16T01:59:34.444Z,25.17
2023-04-16T01:59:44.449Z,25.17
2023-04-16T01:59:54.471Z,25.17
2023-04-16T02:00:04.493Z,25.17
2023-04-16T02:00:14.493Z,25.16
2023-04-16T02:00:24.493Z,25.17
2023-04-16T02:00:34.570Z,25.17
2023-04-16T02:00:44.626Z,25.17
2023-04-16T02:00:54.671Z,25.17
2023-04-16T02:01:04.750Z,25.17
2023-04-16T02:01:14.723Z,25.17
2023-04-16T02:01:24.952Z,25.17
2023-04-16T02:01:34.851Z,25.16
2023-04-16T02:01:44.906Z,25.17
2023-04-16T02:01:55.111Z,25.16
2023-04-16T02:02:05.050Z,25.17
2023-04-16T02:02:15.152Z,25.16
2023-04-16T02:02:25.494Z,25.15
2023-04-16T02:02:35.722Z,25.15
2023-04-16T02:02:45.690Z,25.16
2023-04-16T02:02:55.978Z,25.15
2023-04-16T02:03:06.074Z,25.14
2023-04-16T02:03:16.214Z,25.15
2023-04-16T02:03:26.525Z,25.14
2023-04-16T02:03:36.501Z,25.14
2023-04-16T02:03:46.589Z,25.13
2023-04-16T02:03:56.903Z,25.13
2023-04-16T02:04:06.950Z,25.13
2023-04-16T02:04:16.984Z,25.12
2023-04-16T02:04:27.264Z,25.12
2023-04-16T02:04:37.275Z,25.11
2023-04-16T02:04:47.284Z,25.12
2023-04-16T02:04:57.293Z,25.12
2023-04-16T02:05:07.310Z,25.12
2023-04-16T02:05:17.334Z,25.11
2023-04-16T02:05:27.389Z,25.12
2023-04-16T02:05:37.387Z,25.12
2023-04-16T02:05:47.518Z,25.12
2023-04-16T02:05:57.516Z,25.12
2023-04-16T02:06:07.806Z,25.12
2023-04-16T02:06:17.866Z,25.12
2023-04-16T02:06:27.866Z,25.12
2023-04-16T02:06:37.856Z,25.12
2023-04-16T02:06:47.888Z,25.13
2023-04-16T02:06:57.876Z,25.12
2023-04-16T02:07:07.885Z,25.12
2023-04-16T02:07:17.914Z,25.11
2023-04-16T02:07:27.910Z,25.12
2023-04-16T02:07:37.951Z,25.12
2023-04-16T02:07:47.965Z,25.12
2023-04-16T02:07:57.970Z,25.11
2023-04-16T02:08:08.103Z,25.12
2023-04-16T02:08:18.108Z,25.12
2023-04-16T02:08:28.111Z,25.12
2023-04-16T02:08:38.112Z,25.12
2023-04-16T02:08:48.123Z,25.12
2023-04-16T02:08:58.384Z,25.12
2023-04-16T02:09:08.692Z,25.12
2023-04-16T02:09:18.569Z,25.11